Time;durP1;ratioP1;P1;durP2;ratioP2;P2;SDS_P1;SDS_P2;PMS_P1;PMS_P2;Temp;Humidity;BMP_temperature;BMP_pressure;BME280_temperature;BME280_humidity;BME280_pressure;Samples;Min_cycle;Max_cycle;Signal;HPM_P1;HPM_P2
2021/04/23 00:00:13;;;;;;;27.95;25.73;;;;;;;;;;5053764;28;20201;-83
2021/04/23 00:02:40;;;;;;;28.45;25.95;;;;;;;;;;5053565;28;20692;-83
2021/04/23 00:05:09;;;;;;;28.42;26.00;;;;;;;;;;5057616;28;20229;-83
2021/04/23 00:07:36;;;;;;;28.15;25.58;;;;;;;;;;5058149;28;20195;-83
2021/04/23 00:10:04;;;;;;;27.92;25.52;;;;;;;;;;5040518;28;20248;-83
2021/04/23 00:12:31;;;;;;;29.67;27.08;;;;;;;;;;5057871;28;20205;-83
2021/04/23 00:14:58;;;;;;;28.52;26.05;;;;;;;;;;5057844;28;20190;-83
2021/04/23 00:17:25;;;;;;;28.23;26.00;;;;;;;;;;5057386;28;20201;-83
2021/04/23 00:19:52;;;;;;;28.02;25.58;;;;;;;;;;5057798;28;20559;-83
2021/04/23 00:22:20;;;;;;;27.85;25.65;;;;;;;;;;5057341;28;20193;-83
2021/04/23 00:24:46;;;;;;;27.50;25.15;;;;;;;;;;5057598;28;20223;-83
2021/04/23 00:27:13;;;;;;;29.60;26.63;;;;;;;;;;5056985;28;20214;-82
2021/04/23 00:29:40;;;;;;;27.40;25.27;;;;;;;;;;5057626;28;20234;-82
2021/04/23 00:34:52;;;;;;;25.75;23.95;;;;;;;;;;5057372;28;20192;-83
2021/04/23 00:37:20;;;;;;;29.33;26.52;;;;;;;;;;5057427;28;20190;-83
2021/04/23 00:39:47;;;;;;;26.77;24.35;;;;;;;;;;5057351;28;20190;-82
2021/04/23 00:42:14;;;;;;;28.17;26.10;;;;;;;;;;5057035;28;20197;-83
2021/04/23 00:44:41;;;;;;;27.45;24.83;;;;;;;;;;5056973;28;20214;-83
2021/04/23 00:47:08;;;;;;;28.52;26.10;;;;;;;;;;5057287;28;20187;-83
2021/04/23 00:49:35;;;;;;;27.42;25.35;;;;;;;;;;5056556;28;20202;-82
2021/04/23 00:52:02;;;;;;;28.08;25.77;;;;;;;;;;5057076;28;20267;-83
2021/04/23 00:54:30;;;;;;;27.17;25.02;;;;;;;;;;5056904;28;20678;-83
2021/04/23 00:56:58;;;;;;;30.67;28.38;;;;;;;;;;5056851;28;20228;-83
2021/04/23 00:59:25;;;;;;;28.13;25.73;;;;;;;;;;5057049;28;20243;-82
2021/04/23 01:01:53;;;;;;;28.60;26.25;;;;;;;;;;5056841;28;20227;-82
2021/04/23 01:04:21;;;;;;;27.75;25.75;;;;;;;;;;5035498;28;20234;-83
2021/04/23 01:06:48;;;;;;;26.77;24.70;;;;;;;;;;5036764;28;20195;-83
2021/04/23 01:09:17;;;;;;;26.70;24.40;;;;;;;;;;5037033;28;20186;-83
2021/04/23 01:11:45;;;;;;;29.15;26.42;;;;;;;;;;5036624;28;20195;-82
2021/04/23 01:14:13;;;;;;;27.00;24.80;;;;;;;;;;5036066;28;20257;-83
2021/04/23 01:16:40;;;;;;;26.27;24.38;;;;;;;;;;5036513;28;20191;-82
2021/04/23 01:19:07;;;;;;;28.08;25.55;;;;;;;;;;5035770;28;20198;-83
2021/04/23 01:21:36;;;;;;;27.45;25.45;;;;;;;;;;5036756;28;20199;-82
2021/04/23 01:24:04;;;;;;;30.45;27.85;;;;;;;;;;5036652;28;20201;-83
2021/04/23 01:26:34;;;;;;;27.17;25.15;;;;;;;;;;5036773;28;20199;-83
2021/04/23 01:29:01;;;;;;;26.85;24.95;;;;;;;;;;5036324;28;20659;-83
2021/04/23 01:31:29;;;;;;;27.65;25.45;;;;;;;;;;5036319;28;20201;-82
2021/04/23 01:33:58;;;;;;;27.63;25.48;;;;;;;;;;5035402;28;20210;-82
2021/04/23 01:36:25;;;;;;;29.00;26.40;;;;;;;;;;5036208;28;20267;-83
2021/04/23 01:38:53;;;;;;;27.70;25.50;;;;;;;;;;5035321;28;20186;-83
2021/04/23 01:41:20;;;;;;;27.55;25.55;;;;;;;;;;5036399;28;20203;-83
2021/04/23 01:43:48;;;;;;;28.60;26.23;;;;;;;;;;5036392;28;20226;-83
2021/04/23 01:46:15;;;;;;;29.67;26.65;;;;;;;;;;5036145;28;20223;-83
2021/04/23 01:48:42;;;;;;;28.35;25.85;;;;;;;;;;5036226;28;20191;-82
2021/04/23 01:51:11;;;;;;;29.88;27.02;;;;;;;;;;5036152;28;20329;-83
2021/04/23 01:53:38;;;;;;;27.45;25.35;;;;;;;;;;5036134;28;20198;-82
2021/04/23 01:56:07;;;;;;;28.30;25.85;;;;;;;;;;5036056;28;20695;-83
2021/04/23 01:58:34;;;;;;;29.58;26.95;;;;;;;;;;5035502;28;20389;-82
2021/04/23 02:01:01;;;;;;;29.38;26.88;;;;;;;;;;5035867;28;20237;-82
2021/04/23 02:03:28;;;;;;;28.45;25.90;;;;;;;;;;5047125;28;20240;-83
2021/04/23 02:05:55;;;;;;;27.50;25.40;;;;;;;;;;5055771;28;20601;-83
2021/04/23 02:08:23;;;;;;;27.92;25.48;;;;;;;;;;5055864;28;20199;-83
2021/04/23 02:10:52;;;;;;;27.50;25.30;;;;;;;;;;5055596;28;20230;-83
2021/04/23 02:13:23;;;;;;;29.58;26.83;;;;;;;;;;5055611;28;20190;-83
2021/04/23 02:15:50;;;;;;;27.73;25.45;;;;;;;;;;5055389;28;20205;-82
2021/04/23 02:18:18;;;;;;;27.83;25.55;;;;;;;;;;5055543;28;20197;-83
2021/04/23 02:20:44;;;;;;;28.95;26.70;;;;;;;;;;5055441;28;20207;-82
2021/04/23 02:23:13;;;;;;;28.88;26.45;;;;;;;;;;5055476;28;20193;-83
2021/04/23 02:25:40;;;;;;;29.48;26.77;;;;;;;;;;5037636;28;20214;-83
2021/04/23 02:28:08;;;;;;;28.70;26.17;;;;;;;;;;5054839;28;20195;-83
2021/04/23 02:30:37;;;;;;;28.65;26.13;;;;;;;;;;5055346;28;20194;-83
2021/04/23 02:33:05;;;;;;;29.17;26.75;;;;;;;;;;5055060;28;20217;-82
2021/04/23 02:35:32;;;;;;;28.38;25.98;;;;;;;;;;5037358;28;20667;-83
2021/04/23 02:37:59;;;;;;;27.77;25.55;;;;;;;;;;5055099;28;20194;-81
2021/04/23 02:40:27;;;;;;;27.50;25.40;;;;;;;;;;5054781;28;20198;-82
2021/04/23 02:42:56;;;;;;;35.13;27.45;;;;;;;;;;5055029;28;20604;-83
2021/04/23 02:45:23;;;;;;;28.80;25.92;;;;;;;;;;5054755;28;20705;-83
2021/04/23 02:47:52;;;;;;;28.83;26.15;;;;;;;;;;5054967;28;20194;-83
2021/04/23 02:50:20;;;;;;;28.95;26.58;;;;;;;;;;5054919;28;20195;-82
2021/04/23 02:52:47;;;;;;;27.50;25.25;;;;;;;;;;5055018;28;20601;-82
2021/04/23 02:55:15;;;;;;;28.58;26.17;;;;;;;;;;5054866;28;20563;-82
2021/04/23 02:57:42;;;;;;;27.73;25.17;;;;;;;;;;5054841;28;20198;-83
2021/04/23 03:00:10;;;;;;;29.02;26.70;;;;;;;;;;5054382;28;20225;-82
2021/04/23 03:02:37;;;;;;;27.48;25.20;;;;;;;;;;5053788;28;20246;-82
2021/04/23 03:05:05;;;;;;;28.60;26.25;;;;;;;;;;5036733;28;20817;-82
2021/04/23 03:07:33;;;;;;;30.85;27.13;;;;;;;;;;5054379;28;20194;-83
2021/04/23 03:10:00;;;;;;;28.85;26.55;;;;;;;;;;5054250;28;20633;-83
2021/04/23 03:12:27;;;;;;;30.10;27.38;;;;;;;;;;5054495;28;20209;-83
2021/04/23 03:14:54;;;;;;;27.83;25.52;;;;;;;;;;5055395;28;20192;-83
2021/04/23 03:17:20;;;;;;;29.38;26.83;;;;;;;;;;5054527;28;20185;-82
2021/04/23 03:19:47;;;;;;;28.55;26.00;;;;;;;;;;5054564;28;20194;-83
2021/04/23 03:22:15;;;;;;;29.17;26.83;;;;;;;;;;5053995;28;20202;-82
2021/04/23 03:24:42;;;;;;;29.50;26.98;;;;;;;;;;5054294;28;20565;-83
2021/04/23 03:27:09;;;;;;;29.50;26.58;;;;;;;;;;5054424;28;20193;-83
2021/04/23 03:29:36;;;;;;;28.15;25.60;;;;;;;;;;5054265;28;20560;-82
2021/04/23 03:32:03;;;;;;;28.05;25.80;;;;;;;;;;5053844;28;20195;-83
2021/04/23 03:34:30;;;;;;;27.30;25.25;;;;;;;;;;5036435;28;20202;-82
2021/04/23 03:36:57;;;;;;;29.50;26.58;;;;;;;;;;5054209;28;20201;-83
2021/04/23 03:39:25;;;;;;;28.48;26.10;;;;;;;;;;5053813;28;20213;-83
2021/04/23 03:41:52;;;;;;;28.70;26.38;;;;;;;;;;5054199;28;20201;-83
2021/04/23 03:44:19;;;;;;;27.63;25.48;;;;;;;;;;5054118;28;20186;-82
2021/04/23 03:46:46;;;;;;;29.10;26.55;;;;;;;;;;5054082;28;20569;-83
2021/04/23 03:49:13;;;;;;;27.02;24.92;;;;;;;;;;5053974;28;20244;-82
2021/04/23 03:51:40;;;;;;;29.08;26.50;;;;;;;;;;5053762;28;20197;-82
2021/04/23 03:54:07;;;;;;;28.00;25.70;;;;;;;;;;5053686;28;20195;-83
2021/04/23 03:56:35;;;;;;;29.27;26.42;;;;;;;;;;5054039;28;20594;-83
2021/04/23 03:59:02;;;;;;;27.70;25.25;;;;;;;;;;5053966;28;20191;-82
2021/04/23 04:01:30;;;;;;;29.17;26.88;;;;;;;;;;5036058;28;20338;-83
2021/04/23 04:03:57;;;;;;;29.98;27.20;;;;;;;;;;5053674;28;20241;-82
2021/04/23 04:06:24;;;;;;;27.67;25.50;;;;;;;;;;5053644;28;20221;-82
2021/04/23 04:08:51;;;;;;;28.38;25.45;;;;;;;;;;5053888;28;20190;-82
2021/04/23 04:11:18;;;;;;;30.20;27.50;;;;;;;;;;5053799;28;20194;-82
2021/04/23 04:13:46;;;;;;;29.73;27.17;;;;;;;;;;5053468;28;20213;-82
2021/04/23 04:16:13;;;;;;;29.10;26.67;;;;;;;;;;5053464;28;20194;-83
2021/04/23 04:18:40;;;;;;;29.40;26.58;;;;;;;;;;5036128;28;20206;-83
2021/04/23 04:21:07;;;;;;;28.95;26.55;;;;;;;;;;5053860;28;20185;-84
2021/04/23 04:23:34;;;;;;;29.27;26.55;;;;;;;;;;5053974;28;20241;-84
2021/04/23 04:26:02;;;;;;;29.73;26.80;;;;;;;;;;5053410;28;20230;-84
2021/04/23 04:28:30;;;;;;;29.55;27.00;;;;;;;;;;5054085;28;20613;-84
2021/04/23 04:30:58;;;;;;;28.92;26.13;;;;;;;;;;5053837;28;20191;-84
2021/04/23 04:33:25;;;;;;;29.85;27.13;;;;;;;;;;5053683;28;20194;-84
2021/04/23 04:35:52;;;;;;;31.02;28.05;;;;;;;;;;5053822;28;20189;-84
2021/04/23 04:38:19;;;;;;;29.13;26.10;;;;;;;;;;5036306;28;20189;-85
2021/04/23 04:40:47;;;;;;;28.58;26.00;;;;;;;;;;5053350;28;20189;-85
2021/04/23 04:43:14;;;;;;;28.10;25.63;;;;;;;;;;5053753;28;20203;-85
2021/04/23 04:45:42;;;;;;;30.45;27.30;;;;;;;;;;5053081;28;20244;-84
2021/04/23 04:48:11;;;;;;;29.20;26.58;;;;;;;;;;5053586;28;20245;-83
2021/04/23 04:50:40;;;;;;;29.55;26.77;;;;;;;;;;5055571;28;20285;-82
2021/04/23 04:53:08;;;;;;;29.75;27.17;;;;;;;;;;5056935;28;20189;-82
2021/04/23 04:55:37;;;;;;;29.95;27.35;;;;;;;;;;5056907;28;20195;-84
2021/04/23 04:58:04;;;;;;;28.50;26.23;;;;;;;;;;5057328;28;20199;-83
2021/04/23 05:00:32;;;;;;;30.45;27.35;;;;;;;;;;5039284;28;20229;-84
2021/04/23 05:02:59;;;;;;;31.52;28.40;;;;;;;;;;5056289;28;20233;-82
2021/04/23 05:05:27;;;;;;;29.85;26.67;;;;;;;;;;5056392;28;20236;-81
2021/04/23 05:07:54;;;;;;;29.70;27.23;;;;;;;;;;5056574;28;20363;-82
2021/04/23 05:10:21;;;;;;;27.48;25.05;;;;;;;;;;5056374;28;20195;-81
2021/04/23 05:12:48;;;;;;;29.35;26.60;;;;;;;;;;5056515;28;20214;-78
2021/04/23 05:15:17;;;;;;;29.60;26.85;;;;;;;;;;5038611;28;20203;-81
2021/04/23 05:17:44;;;;;;;27.75;25.50;;;;;;;;;;5038834;28;20716;-81
2021/04/23 05:20:12;;;;;;;29.90;26.85;;;;;;;;;;5056113;28;20666;-81
2021/04/23 05:22:40;;;;;;;29.38;26.40;;;;;;;;;;5056207;28;20194;-81
2021/04/23 05:25:08;;;;;;;29.80;26.80;;;;;;;;;;5056612;28;20215;-82
2021/04/23 05:27:35;;;;;;;28.15;25.70;;;;;;;;;;5056496;28;20186;-82
2021/04/23 05:30:02;;;;;;;27.27;24.95;;;;;;;;;;5056256;28;20555;-82
2021/04/23 05:32:29;;;;;;;30.35;27.27;;;;;;;;;;5056141;28;20651;-81
2021/04/23 05:34:56;;;;;;;31.95;28.75;;;;;;;;;;5055964;28;20218;-80
2021/04/23 05:37:23;;;;;;;31.30;28.70;;;;;;;;;;5056098;28;20615;-83
2021/04/23 05:39:51;;;;;;;30.65;28.05;;;;;;;;;;5055740;28;20301;-82
2021/04/23 05:42:18;;;;;;;29.40;26.75;;;;;;;;;;5056061;28;20223;-81
2021/04/23 05:44:45;;;;;;;31.10;28.80;;;;;;;;;;5038740;28;20248;-82
2021/04/23 05:47:12;;;;;;;30.70;28.15;;;;;;;;;;5056251;28;20187;-82
2021/04/23 05:49:39;;;;;;;30.92;28.63;;;;;;;;;;5055788;28;20214;-82
2021/04/23 05:52:07;;;;;;;31.00;28.10;;;;;;;;;;5055999;28;20527;-83
2021/04/23 05:54:34;;;;;;;31.02;28.38;;;;;;;;;;5055980;28;20205;-82
2021/04/23 05:57:03;;;;;;;31.02;28.33;;;;;;;;;;5055926;28;20194;-82
2021/04/23 05:59:29;;;;;;;31.55;28.65;;;;;;;;;;5055833;28;20248;-83
2021/04/23 06:01:56;;;;;;;29.52;27.08;;;;;;;;;;5036329;28;20222;-81
2021/04/23 06:04:23;;;;;;;29.60;27.15;;;;;;;;;;5055210;28;20241;-82
2021/04/23 06:06:50;;;;;;;30.90;28.17;;;;;;;;;;5055734;28;20243;-82
2021/04/23 06:09:18;;;;;;;29.35;27.05;;;;;;;;;;5055368;28;20203;-81
2021/04/23 06:11:45;;;;;;;30.20;27.60;;;;;;;;;;5037443;28;20241;-81
2021/04/23 06:14:12;;;;;;;30.13;27.42;;;;;;;;;;5037499;28;20206;-81
2021/04/23 06:16:39;;;;;;;30.52;28.00;;;;;;;;;;5055327;28;20551;-80
2021/04/23 06:19:06;;;;;;;31.90;28.77;;;;;;;;;;5055048;28;20194;-81
2021/04/23 06:21:34;;;;;;;29.60;27.08;;;;;;;;;;5055284;28;20191;-81
2021/04/23 06:24:02;;;;;;;31.05;28.27;;;;;;;;;;5055199;28;20244;-81
2021/04/23 06:26:29;;;;;;;32.00;29.20;;;;;;;;;;5054877;28;20218;-81
2021/04/23 06:28:55;;;;;;;30.48;27.77;;;;;;;;;;5055120;28;20199;-81
2021/04/23 06:31:23;;;;;;;30.90;27.60;;;;;;;;;;5037134;28;20652;-81
2021/04/23 06:33:52;;;;;;;31.33;28.58;;;;;;;;;;5054700;28;20610;-81
2021/04/23 06:36:19;;;;;;;30.05;27.75;;;;;;;;;;5053913;28;20252;-77
2021/04/23 06:38:46;;;;;;;31.02;28.25;;;;;;;;;;5053663;28;20641;-78
2021/04/23 06:41:14;;;;;;;29.83;27.33;;;;;;;;;;5054747;28;20196;-80
2021/04/23 06:43:42;;;;;;;30.70;27.80;;;;;;;;;;5054800;28;20446;-78
2021/04/23 06:46:09;;;;;;;30.65;27.88;;;;;;;;;;5054306;28;20493;-80
2021/04/23 06:48:38;;;;;;;31.65;28.60;;;;;;;;;;5054358;28;20573;-79
2021/04/23 06:51:05;;;;;;;29.58;27.25;;;;;;;;;;5054249;28;20657;-79
2021/04/23 06:53:32;;;;;;;30.98;28.17;;;;;;;;;;5054261;28;20264;-79
2021/04/23 06:56:01;;;;;;;32.78;29.88;;;;;;;;;;5054445;28;20187;-80
2021/04/23 06:58:28;;;;;;;34.60;30.23;;;;;;;;;;5054150;28;20225;-80
2021/04/23 07:00:55;;;;;;;31.27;28.63;;;;;;;;;;5053893;28;20480;-80
2021/04/23 07:03:22;;;;;;;30.65;28.40;;;;;;;;;;5053879;28;20705;-80
2021/04/23 07:05:50;;;;;;;30.83;28.15;;;;;;;;;;5054156;28;20293;-80
2021/04/23 07:08:17;;;;;;;31.53;28.90;;;;;;;;;;5053429;28;20661;-79
2021/04/23 07:10:43;;;;;;;28.87;26.23;;;;;;;;;;5053773;28;20421;-80
2021/04/23 07:13:12;;;;;;;30.85;28.15;;;;;;;;;;5053798;28;20439;-80
2021/04/23 07:15:40;;;;;;;32.47;29.43;;;;;;;;;;5054124;28;20203;-80
2021/04/23 07:18:07;;;;;;;29.57;27.10;;;;;;;;;;5054188;28;20435;-80
2021/04/23 07:20:34;;;;;;;30.37;27.80;;;;;;;;;;5054094;28;20430;-80
2021/04/23 07:23:02;;;;;;;30.63;26.50;;;;;;;;;;5053741;28;20447;-80
2021/04/23 07:25:29;;;;;;;30.00;27.47;;;;;;;;;;5053563;28;20265;-79
2021/04/23 07:27:59;;;;;;;30.60;28.13;;;;;;;;;;5053957;28;20520;-80
2021/04/23 07:30:27;;;;;;;28.30;26.20;;;;;;;;;;5053955;28;20828;-80
2021/04/23 07:32:55;;;;;;;29.13;26.63;;;;;;;;;;5053597;28;20192;-80
2021/04/23 07:35:22;;;;;;;29.47;26.97;;;;;;;;;;5054016;28;20427;-80
2021/04/23 07:37:50;;;;;;;28.23;25.60;;;;;;;;;;5054557;28;20434;-80
2021/04/23 07:40:19;;;;;;;29.27;26.67;;;;;;;;;;5054122;28;20441;-82
2021/04/23 07:42:47;;;;;;;30.20;27.30;;;;;;;;;;5053766;28;20442;-82
2021/04/23 07:45:14;;;;;;;28.83;26.63;;;;;;;;;;5053584;28;20445;-82
2021/04/23 07:47:42;;;;;;;30.70;27.87;;;;;;;;;;5054237;28;20446;-83
2021/04/23 07:50:11;;;;;;;30.55;27.38;;;;;;;;;;5053750;28;20957;-84
2021/04/23 07:52:38;;;;;;;28.50;26.10;;;;;;;;;;5053542;28;20199;-81
2021/04/23 07:55:05;;;;;;;30.77;28.10;;;;;;;;;;5053898;28;20449;-81
2021/04/23 07:57:35;;;;;;;28.80;26.40;;;;;;;;;;5053732;28;20441;-85
2021/04/23 08:00:02;;;;;;;29.17;26.27;;;;;;;;;;5053502;28;20471;-82
2021/04/23 08:02:29;;;;;;;28.90;26.52;;;;;;;;;;5053059;28;20502;-84
2021/04/23 08:04:56;;;;;;;29.73;27.30;;;;;;;;;;5053842;28;20648;-85
2021/04/23 08:07:23;;;;;;;28.70;26.50;;;;;;;;;;5054139;28;20414;-84
2021/04/23 08:09:50;;;;;;;29.47;26.90;;;;;;;;;;5053862;28;20453;-86
2021/04/23 08:12:17;;;;;;;27.93;25.83;;;;;;;;;;5053641;28;20442;-84
2021/04/23 08:14:45;;;;;;;28.60;26.17;;;;;;;;;;5054426;28;20417;-83
2021/04/23 08:17:12;;;;;;;26.87;24.77;;;;;;;;;;5053941;28;20433;-82
2021/04/23 08:19:39;;;;;;;26.13;24.13;;;;;;;;;;5054114;28;20433;-83
2021/04/23 08:22:06;;;;;;;28.67;25.53;;;;;;;;;;5054019;28;20442;-84
2021/04/23 08:24:33;;;;;;;27.43;25.23;;;;;;;;;;5054626;28;20473;-85
2021/04/23 08:27:00;;;;;;;26.83;24.90;;;;;;;;;;5057682;28;21009;-85
2021/04/23 08:29:27;;;;;;;27.70;25.53;;;;;;;;;;5039825;28;20449;-84
2021/04/23 08:31:55;;;;;;;27.80;25.60;;;;;;;;;;5057292;28;20768;-83
2021/04/23 08:34:21;;;;;;;28.20;26.10;;;;;;;;;;5057386;28;20456;-84
2021/04/23 08:36:48;;;;;;;27.93;25.43;;;;;;;;;;5057902;28;20416;-84
2021/04/23 08:39:15;;;;;;;28.23;25.60;;;;;;;;;;5057499;28;20458;-83
2021/04/23 08:41:45;;;;;;;28.50;26.40;;;;;;;;;;5057627;28;20787;-84
2021/04/23 08:44:12;;;;;;;26.83;24.50;;;;;;;;;;5057201;28;20408;-83
2021/04/23 08:46:39;;;;;;;26.47;24.57;;;;;;;;;;5057146;28;20481;-84
2021/04/23 08:49:07;;;;;;;32.77;24.67;;;;;;;;;;5057310;28;20424;-83
2021/04/23 08:51:35;;;;;;;26.70;24.77;;;;;;;;;;5057005;28;20427;-84
2021/04/23 08:54:02;;;;;;;28.40;26.10;;;;;;;;;;5057260;28;20438;-84
2021/04/23 08:56:29;;;;;;;26.73;24.80;;;;;;;;;;5057281;28;20816;-84
2021/04/23 08:58:56;;;;;;;27.37;24.97;;;;;;;;;;5056959;28;20413;-84
2021/04/23 09:01:26;;;;;;;26.50;24.60;;;;;;;;;;5057125;28;20892;-84
2021/04/23 09:03:53;;;;;;;27.67;25.57;;;;;;;;;;5056987;28;20517;-85
2021/04/23 09:06:24;;;;;;;27.13;25.00;;;;;;;;;;5057191;28;20482;-84
2021/04/23 09:09:01;;;;;;;28.60;26.50;;;;;;;;;;5056792;28;20508;-84
2021/04/23 09:11:31;;;;;;;27.53;25.33;;;;;;;;;;5056595;28;20412;-84
2021/04/23 09:13:58;;;;;;;27.97;25.57;;;;;;;;;;5056881;28;20414;-85
2021/04/23 09:16:26;;;;;;;26.70;24.70;;;;;;;;;;5056931;28;20409;-84
2021/04/23 09:18:53;;;;;;;26.90;24.90;;;;;;;;;;5056672;28;20428;-84
2021/04/23 09:21:21;;;;;;;28.07;25.40;;;;;;;;;;5056408;28;20428;-84
2021/04/23 09:23:50;;;;;;;27.43;25.30;;;;;;;;;;5056314;28;20425;-85
2021/04/23 09:26:34;;;;;;;26.03;24.00;;;;;;;;;;5038909;28;20475;-82
2021/04/23 09:29:01;;;;;;;25.00;23.00;;;;;;;;;;5056280;28;20956;-84
2021/04/23 09:31:29;;;;;;;27.67;25.80;;;;;;;;;;5056787;28;20767;-84
2021/04/23 09:33:57;;;;;;;25.83;24.13;;;;;;;;;;5056633;28;20420;-83
2021/04/23 09:36:32;;;;;;;27.57;25.40;;;;;;;;;;5056208;28;20474;-84
2021/04/23 09:39:06;;;;;;;27.90;25.60;;;;;;;;;;5056164;28;20412;-84
2021/04/23 09:41:34;;;;;;;28.40;26.40;;;;;;;;;;5055915;28;20445;-85
2021/04/23 09:44:00;;;;;;;26.40;24.30;;;;;;;;;;5055989;28;20446;-87
2021/04/23 09:46:35;;;;;;;26.10;24.33;;;;;;;;;;5038672;28;20456;-86
2021/04/23 09:49:18;;;;;;;28.17;25.40;;;;;;;;;;5056505;28;20506;-86
2021/04/23 09:51:46;;;;;;;26.47;24.57;;;;;;;;;;5056044;28;20405;-87
2021/04/23 09:54:14;;;;;;;28.07;25.60;;;;;;;;;;5056217;28;20446;-83
2021/04/23 09:56:41;;;;;;;27.87;25.43;;;;;;;;;;5038192;28;20930;-83
2021/04/23 09:59:15;;;;;;;28.00;25.60;;;;;;;;;;5056398;28;20438;-87
2021/04/23 10:01:52;;;;;;;28.80;26.40;;;;;;;;;;5056516;28;21001;-85
2021/04/23 10:04:24;;;;;;;28.27;26.10;;;;;;;;;;5055764;28;20479;-85
2021/04/23 10:07:07;;;;;;;26.43;24.60;;;;;;;;;;5056142;28;20461;-86
2021/04/23 10:09:34;;;;;;;28.20;26.03;;;;;;;;;;5055248;28;20467;-87
2021/04/23 10:12:01;;;;;;;28.03;25.70;;;;;;;;;;5038152;28;20439;-86
2021/04/23 10:14:28;;;;;;;28.63;26.57;;;;;;;;;;5055553;28;20435;-83
2021/04/23 10:16:59;;;;;;;27.03;24.70;;;;;;;;;;5055867;28;20417;-84
2021/04/23 10:19:27;;;;;;;27.63;25.03;;;;;;;;;;5055878;28;20451;-86
2021/04/23 10:21:56;;;;;;;27.50;25.40;;;;;;;;;;5055472;28;20439;-87
2021/04/23 10:24:24;;;;;;;27.57;25.50;;;;;;;;;;5055095;28;20456;-88
2021/04/23 10:26:52;;;;;;;26.97;24.97;;;;;;;;;;5055380;28;20457;-81
2021/04/23 10:29:20;;;;;;;27.20;25.07;;;;;;;;;;5038008;28;20447;-87
2021/04/23 10:31:47;;;;;;;27.20;25.03;;;;;;;;;;5055469;28;20410;-87
2021/04/23 10:34:14;;;;;;;26.33;24.43;;;;;;;;;;5054979;28;20418;-86
2021/04/23 10:36:41;;;;;;;27.17;25.27;;;;;;;;;;5055270;28;20516;-86
2021/04/23 10:39:11;;;;;;;27.13;24.63;;;;;;;;;;5055412;28;20421;-86
2021/04/23 10:41:39;;;;;;;25.47;23.77;;;;;;;;;;5055390;28;20431;-86
2021/04/23 10:44:07;;;;;;;27.97;26.10;;;;;;;;;;5055329;28;20811;-85
2021/04/23 10:46:48;;;;;;;25.77;23.97;;;;;;;;;;5054838;28;20479;-85
2021/04/23 10:49:15;;;;;;;26.97;25.10;;;;;;;;;;5054674;28;20416;-83
2021/04/23 10:51:44;;;;;;;28.13;26.10;;;;;;;;;;5054819;28;20412;-81
2021/04/23 10:54:14;;;;;;;27.67;25.67;;;;;;;;;;5055118;28;20767;-83
2021/04/23 10:56:49;;;;;;;29.43;27.03;;;;;;;;;;5055459;28;20409;-85
2021/04/23 10:59:32;;;;;;;27.37;25.30;;;;;;;;;;5055596;28;20453;-86
2021/04/23 11:02:15;;;;;;;27.57;25.67;;;;;;;;;;5055458;28;20433;-87
2021/04/23 11:04:56;;;;;;;26.10;24.40;;;;;;;;;;5055908;28;20420;-88
2021/04/23 11:07:23;;;;;;;28.00;26.10;;;;;;;;;;5055649;28;21066;-88
2021/04/23 11:09:57;;;;;;;28.83;26.40;;;;;;;;;;5056444;28;20805;-80
2021/04/23 11:12:27;;;;;;;27.03;25.33;;;;;;;;;;5057120;28;20488;-86
2021/04/23 11:15:11;;;;;;;27.53;25.63;;;;;;;;;;5056694;28;20445;-86
2021/04/23 11:17:38;;;;;;;27.17;25.37;;;;;;;;;;5039827;28;20435;-84
2021/04/23 11:20:24;;;;;;;27.23;25.33;;;;;;;;;;5037184;28;20446;-81
2021/04/23 11:22:55;;;;;;;28.80;26.47;;;;;;;;;;5057690;28;20456;-88
2021/04/23 11:25:22;;;;;;;26.20;24.40;;;;;;;;;;5054896;28;20434;-88
2021/04/23 11:28:22;;;;;;;27.83;25.40;;;;;;;;;;5055585;28;20489;-87
2021/04/23 11:31:01;;;;;;;27.60;25.30;;;;;;;;;;5054635;28;20493;-87
2021/04/23 11:33:51;;;;;;;26.37;24.53;;;;;;;;;;5054366;28;20439;-86
2021/04/23 11:36:26;;;;;;;27.30;25.40;;;;;;;;;;5053987;28;20931;-87
2021/04/23 11:38:53;;;;;;;26.40;24.63;;;;;;;;;;5055532;28;20502;-87
2021/04/23 11:41:20;;;;;;;25.73;24.00;;;;;;;;;;5036962;28;20439;-86
2021/04/23 11:43:47;;;;;;;28.13;25.87;;;;;;;;;;5054670;28;20520;-87
2021/04/23 11:46:15;;;;;;;27.90;25.60;;;;;;;;;;5054878;28;20485;-84
2021/04/23 11:48:47;;;;;;;30.43;27.87;;;;;;;;;;5054051;28;20430;-76
2021/04/23 11:51:14;;;;;;;28.13;25.83;;;;;;;;;;5053969;28;20534;-76
2021/04/23 11:53:47;;;;;;;26.10;24.30;;;;;;;;;;5053579;28;20479;-78
2021/04/23 11:56:14;;;;;;;28.17;25.93;;;;;;;;;;5053291;28;20445;-77
2021/04/23 11:58:42;;;;;;;27.23;25.27;;;;;;;;;;5054484;28;20441;-77
2021/04/23 12:01:09;;;;;;;28.20;26.07;;;;;;;;;;5039870;28;20465;-76
2021/04/23 12:03:37;;;;;;;28.83;26.63;;;;;;;;;;5057300;28;20474;-76
2021/04/23 12:06:04;;;;;;;28.43;26.43;;;;;;;;;;5057278;28;20879;-76
2021/04/23 12:08:32;;;;;;;27.43;25.43;;;;;;;;;;5057286;28;20416;-77
2021/04/23 12:11:01;;;;;;;27.30;25.23;;;;;;;;;;5057416;28;20457;-76
2021/04/23 12:13:28;;;;;;;26.80;24.90;;;;;;;;;;5057188;28;20442;-76
2021/04/23 12:15:57;;;;;;;26.47;24.67;;;;;;;;;;5057418;28;20432;-76
2021/04/23 12:18:24;;;;;;;25.77;23.97;;;;;;;;;;5057516;28;20484;-75
2021/04/23 12:20:53;;;;;;;27.93;25.90;;;;;;;;;;5057379;28;20431;-75
2021/04/23 12:23:21;;;;;;;28.37;26.17;;;;;;;;;;5039760;28;20431;-74
2021/04/23 12:25:49;;;;;;;28.33;25.97;;;;;;;;;;5056501;28;20486;-74
2021/04/23 12:28:32;;;;;;;27.07;25.13;;;;;;;;;;5056764;28;20777;-77
2021/04/23 12:31:02;;;;;;;27.40;25.47;;;;;;;;;;5056233;28;20451;-75
2021/04/23 12:33:36;;;;;;;27.87;25.97;;;;;;;;;;5056566;28;20446;-76
2021/04/23 12:36:11;;;;;;;27.37;25.47;;;;;;;;;;5056269;28;20801;-75
2021/04/23 12:38:39;;;;;;;27.10;25.20;;;;;;;;;;5056602;28;20417;-75
2021/04/23 12:41:23;;;;;;;27.63;25.63;;;;;;;;;;5056210;28;20475;-74
2021/04/23 12:43:51;;;;;;;27.10;25.37;;;;;;;;;;5056629;28;20405;-75
2021/04/23 12:46:23;;;;;;;28.90;26.33;;;;;;;;;;5022122;28;20749;-75
2021/04/23 12:48:58;;;;;;;27.40;25.60;;;;;;;;;;5038906;28;20405;-77
2021/04/23 12:51:27;;;;;;;28.37;26.57;;;;;;;;;;5056183;28;20458;-75
2021/04/23 12:53:54;;;;;;;28.23;26.37;;;;;;;;;;5038490;28;20438;-75
2021/04/23 12:56:21;;;;;;;27.67;25.67;;;;;;;;;;5055057;28;20418;-76
2021/04/23 12:58:48;;;;;;;27.20;25.07;;;;;;;;;;5038771;28;20418;-76
2021/04/23 13:01:15;;;;;;;25.67;23.97;;;;;;;;;;5056045;28;20464;-76
2021/04/23 13:03:43;;;;;;;26.80;24.83;;;;;;;;;;5055779;28;20485;-76
2021/04/23 13:06:10;;;;;;;28.33;26.33;;;;;;;;;;5056098;28;20895;-75
2021/04/23 13:08:38;;;;;;;28.43;26.23;;;;;;;;;;5056212;28;20424;-75
2021/04/23 13:11:05;;;;;;;28.80;26.70;;;;;;;;;;5055536;28;20442;-78
2021/04/23 13:13:40;;;;;;;28.00;25.90;;;;;;;;;;5038581;28;20438;-76
2021/04/23 13:16:08;;;;;;;27.57;25.80;;;;;;;;;;5056274;28;20412;-75
2021/04/23 13:18:35;;;;;;;27.93;25.93;;;;;;;;;;5056175;28;20497;-75
2021/04/23 13:21:03;;;;;;;28.13;25.60;;;;;;;;;;5056150;28;20446;-75
2021/04/23 13:23:32;;;;;;;27.20;25.20;;;;;;;;;;5055868;28;20534;-75
2021/04/23 13:25:59;;;;;;;27.77;25.57;;;;;;;;;;5055938;28;20514;-75
2021/04/23 13:28:26;;;;;;;27.50;25.47;;;;;;;;;;5055890;28;20427;-76
2021/04/23 13:30:55;;;;;;;27.87;25.87;;;;;;;;;;5056011;28;20466;-75
2021/04/23 13:33:23;;;;;;;28.73;26.50;;;;;;;;;;5055607;28;20425;-74
2021/04/23 13:35:51;;;;;;;28.60;26.30;;;;;;;;;;5054808;28;20500;-75
2021/04/23 13:38:19;;;;;;;29.27;26.50;;;;;;;;;;5055506;28;20443;-75
2021/04/23 13:40:46;;;;;;;28.07;26.03;;;;;;;;;;5055569;28;20903;-76
2021/04/23 13:43:15;;;;;;;28.70;26.77;;;;;;;;;;5055898;28;20771;-75
2021/04/23 13:45:54;;;;;;;28.13;25.90;;;;;;;;;;5055507;28;20445;-76
2021/04/23 13:48:26;;;;;;;27.67;25.77;;;;;;;;;;5055481;28;20451;-76
2021/04/23 13:50:52;;;;;;;29.17;26.97;;;;;;;;;;5055655;28;20443;-76
2021/04/23 13:53:19;;;;;;;28.57;26.50;;;;;;;;;;5055326;28;20443;-76
2021/04/23 13:55:59;;;;;;;29.43;27.30;;;;;;;;;;5055729;28;20424;-75
2021/04/23 13:58:27;;;;;;;27.27;25.37;;;;;;;;;;5055605;28;20443;-77
2021/04/23 14:00:55;;;;;;;27.80;25.80;;;;;;;;;;5055003;28;20513;-76
2021/04/23 14:03:22;;;;;;;26.87;24.90;;;;;;;;;;5054974;28;21042;-76
2021/04/23 14:05:49;;;;;;;27.27;24.90;;;;;;;;;;5055396;28;20471;-76
2021/04/23 14:08:16;;;;;;;26.40;24.40;;;;;;;;;;5055448;28;20844;-76
2021/04/23 14:10:44;;;;;;;28.60;26.33;;;;;;;;;;5054833;28;20418;-77
2021/04/23 14:13:12;;;;;;;27.83;25.83;;;;;;;;;;5055022;28;20424;-76
2021/04/23 14:15:40;;;;;;;27.80;25.80;;;;;;;;;;5055010;28;20447;-76
2021/04/23 14:18:07;;;;;;;27.80;25.60;;;;;;;;;;5055224;28;20795;-76
2021/04/23 14:20:34;;;;;;;28.90;26.70;;;;;;;;;;5055125;28;20410;-76
2021/04/23 14:23:01;;;;;;;29.97;27.60;;;;;;;;;;5053748;28;20421;-77
2021/04/23 14:25:28;;;;;;;27.80;25.57;;;;;;;;;;5055056;28;20417;-76